Rio Mayo, Argentina
Current Conditions -  °F | °C
As of 4:00 PM on Friday 24 Oct 2014 (Local Time) from SCBA Reporting Station
Clear Clear  
Wind Chill: 66°   Ceiling: Unl
Heat Index: 66°   Visibility: 6mi
Dew Point: 41°   Wind: 15mph
Humidity: 40%   Direction: 310°NW
Pressure: 29.97"   Gusts: NA
Location:  45.68°S, 70.27°W
Report Text: SCBA 241900Z 31013KT CAVOK 19/05 Q1015
Loading
Personal Weather Stations






























Interactive Weather Map
Tropical Storm Tracking
New forecast layout! Learn more

10-Day Weather Forecast

Advertisements
Track Severe Weather on mobile